Time;durP1;ratioP1;P1;durP2;ratioP2;P2;SDS_P1;SDS_P2;PMS_P1;PMS_P2;Temp;Humidity;BMP_temperature;BMP_pressure;BME280_temperature;BME280_humidity;BME280_pressure;Samples;Min_cycle;Max_cycle;Signal;HPM_P1;HPM_P2
2022/04/10 00:01:58;;;;;;;5.17;3.50;;;;;;;3.87;87.21;96830.97;5015161;28;20220;-65
2022/04/10 00:04:24;;;;;;;4.93;4.07;;;;;;;3.77;87.50;96827.88;5033249;28;20187;-64
2022/04/10 00:06:49;;;;;;;7.73;3.50;;;;;;;3.79;87.32;96828.47;5032782;28;20183;-64
2022/04/10 00:09:15;;;;;;;4.43;3.80;;;;;;;3.89;86.49;96826.44;5032623;28;20518;-65
2022/04/10 00:11:40;;;;;;;6.73;3.50;;;;;;;3.96;86.82;96829.88;5032629;28;20194;-63
2022/04/10 00:14:06;;;;;;;5.03;3.63;;;;;;;3.82;86.02;96832.50;5015211;28;20185;-63
2022/04/10 00:16:31;;;;;;;5.27;3.40;;;;;;;3.73;86.85;96829.25;5032801;28;20249;-63
2022/04/10 00:19:01;;;;;;;4.93;3.77;;;;;;;3.81;86.34;96833.50;5032462;28;20221;-64
2022/04/10 00:21:27;;;;;;;5.67;3.67;;;;;;;3.83;86.48;96831.53;5032963;28;20183;-64
2022/04/10 00:23:52;;;;;;;5.00;3.87;;;;;;;3.76;85.36;96832.25;5032514;28;20522;-64
2022/04/10 00:26:18;;;;;;;3.63;3.27;;;;;;;3.69;86.16;96830.56;5033055;28;20273;-63
2022/04/10 00:28:44;;;;;;;5.03;4.10;;;;;;;3.67;85.84;96833.38;5014831;28;20212;-63
2022/04/10 00:31:09;;;;;;;6.40;3.87;;;;;;;3.74;86.31;96836.81;5015008;28;20175;-64
2022/04/10 00:33:34;;;;;;;4.13;3.63;;;;;;;3.67;86.79;96835.16;5014634;28;20186;-64
2022/04/10 00:36:00;;;;;;;8.47;4.10;;;;;;;3.73;86.55;96832.59;5015273;28;20273;-64
2022/04/10 00:38:25;;;;;;;4.67;3.83;;;;;;;3.74;86.37;96836.00;5032167;28;20746;-64
2022/04/10 00:40:50;;;;;;;5.77;4.00;;;;;;;3.59;86.90;96830.88;5032424;28;20540;-64
2022/04/10 00:43:16;;;;;;;4.83;4.10;;;;;;;3.54;86.99;96828.03;5032806;28;20197;-63
2022/04/10 00:45:42;;;;;;;6.10;3.90;;;;;;;3.51;85.92;96830.19;5032847;28;20179;-63
2022/04/10 00:48:08;;;;;;;6.47;4.37;;;;;;;3.63;85.40;96834.69;5032223;28;20683;-64
2022/04/10 00:50:34;;;;;;;6.10;4.07;;;;;;;3.55;85.45;96832.22;5032454;28;20178;-63
2022/04/10 00:53:00;;;;;;;5.83;4.03;;;;;;;3.64;84.66;96832.91;5032364;28;20676;-64
2022/04/10 00:55:26;;;;;;;4.53;4.13;;;;;;;3.74;84.64;96830.81;5032599;28;20189;-64
2022/04/10 00:57:51;;;;;;;4.43;3.80;;;;;;;3.66;84.25;96826.56;5032066;28;20214;-64
2022/04/10 01:00:17;;;;;;;4.90;3.93;;;;;;;3.64;85.44;96828.53;5036304;28;20644;-63
2022/04/10 01:02:43;;;;;;;5.63;3.80;;;;;;;3.58;84.93;96831.03;5018760;28;20588;-62
2022/04/10 01:05:09;;;;;;;5.03;3.87;;;;;;;3.62;85.16;96835.66;5018828;28;20666;-64
2022/04/10 01:07:35;;;;;;;6.37;3.93;;;;;;;3.62;85.00;96827.13;5035841;28;20269;-65
2022/04/10 01:10:01;;;;;;;5.47;4.00;;;;;;;3.51;85.67;96833.53;5018834;28;20556;-63
2022/04/10 01:12:28;;;;;;;7.03;4.07;;;;;;;3.53;85.54;96831.59;5036642;28;20190;-62
2022/04/10 01:14:53;;;;;;;6.47;4.10;;;;;;;3.59;85.18;96827.47;5036106;28;20583;-63
2022/04/10 01:17:19;;;;;;;4.30;3.90;;;;;;;3.52;85.71;96834.34;5036030;28;20198;-64
2022/04/10 01:19:45;;;;;;;4.03;3.73;;;;;;;3.51;85.48;96832.78;5035873;28;20174;-64
2022/04/10 01:22:18;;;;;;;5.40;3.57;;;;;;;3.47;85.64;96834.09;5036032;28;20186;-65
2022/04/10 01:24:44;;;;;;;4.30;4.00;;;;;;;3.53;85.48;96843.75;5019186;28;20170;-64
2022/04/10 01:27:09;;;;;;;5.27;3.93;;;;;;;3.51;85.24;96843.13;5035847;28;20569;-65
2022/04/10 01:29:35;;;;;;;5.10;3.53;;;;;;;3.53;85.11;96835.97;5035652;28;20186;-63
2022/04/10 01:32:00;;;;;;;6.57;3.93;;;;;;;3.49;85.63;96848.50;5034980;28;20260;-64
2022/04/10 01:34:26;;;;;;;4.10;3.80;;;;;;;3.40;85.42;96854.72;5035716;28;20193;-63
2022/04/10 01:36:53;;;;;;;7.77;3.80;;;;;;;3.55;85.27;96852.16;5017750;28;20281;-63
2022/04/10 01:39:18;;;;;;;5.60;4.53;;;;;;;3.65;85.11;96857.84;5036052;28;20221;-64
2022/04/10 01:41:47;;;;;;;6.90;3.97;;;;;;;3.59;85.23;96858.56;5035797;28;20182;-63
2022/04/10 01:44:13;;;;;;;4.20;3.90;;;;;;;3.55;85.55;96850.34;5035772;28;20617;-63
2022/04/10 01:46:38;;;;;;;6.83;4.00;;;;;;;3.73;85.79;96861.13;5035743;28;20234;-64
2022/04/10 01:49:06;;;;;;;9.33;4.83;;;;;;;3.64;85.96;96866.59;5035291;28;20230;-65
2022/04/10 01:51:32;;;;;;;6.30;4.10;;;;;;;3.51;85.71;96866.44;5035395;28;20648;-64
2022/04/10 01:53:58;;;;;;;6.93;4.20;;;;;;;3.41;86.18;96871.88;5035132;28;20254;-64
2022/04/10 01:56:24;;;;;;;4.80;4.40;;;;;;;3.57;85.57;96861.31;5035798;28;20321;-64
2022/04/10 01:58:53;;;;;;;4.37;3.97;;;;;;;3.73;85.19;96852.56;5035434;28;20289;-65
2022/04/10 02:01:19;;;;;;;4.47;3.60;;;;;;;3.70;84.89;96856.31;5035385;28;20325;-63
2022/04/10 02:03:50;;;;;;;5.10;4.20;;;;;;;3.58;84.68;96851.78;5017611;28;20187;-64
2022/04/10 02:06:16;;;;;;;5.27;4.20;;;;;;;3.47;85.25;96853.03;5010788;28;20206;-64
2022/04/10 02:08:42;;;;;;;5.53;4.33;;;;;;;3.47;85.68;96857.41;5035075;28;20630;-64
2022/04/10 02:11:19;;;;;;;4.80;4.10;;;;;;;3.56;85.65;96859.75;5034419;28;20604;-63
2022/04/10 02:13:45;;;;;;;5.43;4.43;;;;;;;3.60;85.69;96860.19;5034900;28;20213;-64
2022/04/10 02:16:13;;;;;;;5.30;4.40;;;;;;;3.63;86.07;96855.41;5035160;28;20179;-64
2022/04/10 02:18:38;;;;;;;6.40;4.40;;;;;;;3.58;85.83;96855.16;5034723;28;20701;-64
2022/04/10 02:21:06;;;;;;;4.43;3.97;;;;;;;3.69;86.19;96852.09;5035169;28;20190;-64
2022/04/10 02:23:31;;;;;;;5.40;4.13;;;;;;;3.65;85.74;96850.06;5034826;28;20232;-63
2022/04/10 02:25:57;;;;;;;5.87;4.53;;;;;;;3.56;85.94;96851.97;5034484;28;20266;-64
2022/04/10 02:28:22;;;;;;;6.60;4.20;;;;;;;3.54;86.86;96850.53;5034631;28;20202;-63
2022/04/10 02:30:47;;;;;;;11.53;7.10;;;;;;;3.49;86.39;96861.44;5034629;28;20190;-65
2022/04/10 02:33:13;;;;;;;6.67;4.83;;;;;;;3.55;86.48;96859.91;5034496;28;20194;-65
2022/04/10 02:35:40;;;;;;;8.27;5.20;;;;;;;3.40;85.94;96866.91;5034926;28;20277;-65
2022/04/10 02:38:06;;;;;;;6.00;4.93;;;;;;;3.50;86.77;96867.44;5034709;28;20281;-65
2022/04/10 02:40:31;;;;;;;5.33;4.83;;;;;;;3.51;86.19;96869.81;5035210;28;20274;-64
2022/04/10 02:42:56;;;;;;;7.63;4.37;;;;;;;3.41;86.59;96864.13;5034819;28;20206;-64
2022/04/10 02:45:22;;;;;;;7.47;4.93;;;;;;;3.48;87.25;96875.38;5034654;28;20186;-64
2022/04/10 02:47:47;;;;;;;4.90;4.40;;;;;;;3.56;86.61;96867.50;5035027;28;20262;-64
2022/04/10 02:50:13;;;;;;;7.47;4.57;;;;;;;3.43;86.78;96876.91;5034595;28;20179;-63
2022/04/10 02:52:42;;;;;;;5.10;4.60;;;;;;;3.25;87.71;96878.06;5034607;28;20195;-64
2022/04/10 02:55:08;;;;;;;9.43;4.47;;;;;;;3.38;87.27;96881.81;5034696;28;20199;-63
2022/04/10 02:57:35;;;;;;;6.67;4.57;;;;;;;3.25;87.74;96882.44;5034833;28;20249;-64
2022/04/10 03:00:00;;;;;;;5.67;4.73;;;;;;;3.17;88.26;96880.75;5034274;28;20183;-64
2022/04/10 03:02:25;;;;;;;6.13;4.30;;;;;;;3.26;88.37;96878.88;5033466;28;20709;-65
2022/04/10 03:04:51;;;;;;;5.47;4.20;;;;;;;3.24;88.29;96878.22;5016091;28;20202;-64
2022/04/10 03:07:16;;;;;;;6.47;4.70;;;;;;;3.21;88.60;96883.78;5034404;28;20703;-64
2022/04/10 03:09:41;;;;;;;7.77;4.70;;;;;;;3.24;88.47;96876.44;5034597;28;20187;-62
2022/04/10 03:12:08;;;;;;;6.60;4.60;;;;;;;3.06;89.48;96877.78;5016194;28;20187;-64
2022/04/10 03:14:34;;;;;;;6.28;4.97;;;;;;;3.21;88.89;96883.78;5032842;28;20904;-64
2022/04/10 03:16:59;;;;;;;5.70;4.68;;;;;;;3.00;89.62;96881.88;5032711;28;20399;-64
2022/04/10 03:19:25;;;;;;;5.97;5.38;;;;;;;3.07;90.03;96880.19;5015131;28;20415;-66
2022/04/10 03:21:50;;;;;;;5.60;4.97;;;;;;;3.13;90.66;96878.66;5031878;28;20399;-64
2022/04/10 03:24:16;;;;;;;7.70;5.20;;;;;;;3.15;89.31;96881.88;5034273;28;20269;-64
2022/04/10 03:26:41;;;;;;;6.03;5.43;;;;;;;3.05;90.03;96882.16;5034617;28;20183;-64
2022/04/10 03:29:06;;;;;;;5.50;5.00;;;;;;;3.06;90.27;96883.78;5034039;28;20198;-65
2022/04/10 03:31:32;;;;;;;5.77;4.73;;;;;;;3.01;90.75;96880.88;5033363;28;20186;-64
2022/04/10 03:33:57;;;;;;;10.30;5.33;;;;;;;2.79;91.24;96882.53;5033341;28;20668;-63
2022/04/10 03:36:22;;;;;;;5.40;4.83;;;;;;;2.84;91.05;96894.97;5016097;28;20250;-64
2022/04/10 03:38:48;;;;;;;5.27;4.77;;;;;;;3.00;90.20;96892.25;5033358;28;20211;-64
2022/04/10 03:41:13;;;;;;;5.03;4.33;;;;;;;2.86;90.75;96893.81;5015602;28;20194;-64
2022/04/10 03:43:39;;;;;;;6.30;4.77;;;;;;;2.71;91.50;96889.59;5015842;28;20205;-64
2022/04/10 03:46:05;;;;;;;6.23;4.97;;;;;;;2.77;91.61;96889.69;5015911;28;20175;-64
2022/04/10 03:48:30;;;;;;;6.97;5.43;;;;;;;2.84;91.07;96898.34;5033670;28;20687;-64
2022/04/10 03:50:56;;;;;;;7.03;5.73;;;;;;;2.71;92.04;96897.34;5031977;28;20453;-64
2022/04/10 03:53:21;;;;;;;6.43;5.73;;;;;;;2.79;91.05;96900.66;5032401;28;20390;-65
2022/04/10 03:55:47;;;;;;;7.03;5.40;;;;;;;2.65;91.85;96900.63;5033170;28;20194;-65
2022/04/10 03:58:13;;;;;;;5.43;5.03;;;;;;;2.72;91.48;96904.13;5033595;28;20215;-64
2022/04/10 04:00:38;;;;;;;5.77;5.27;;;;;;;2.68;91.76;96910.63;5032753;28;20215;-64
2022/04/10 04:03:04;;;;;;;6.53;5.80;;;;;;;2.58;91.27;96915.22;5033147;28;20229;-65
2022/04/10 04:05:29;;;;;;;6.27;5.30;;;;;;;2.66;91.00;96913.41;5032960;28;20180;-64
2022/04/10 04:07:55;;;;;;;5.67;5.13;;;;;;;2.65;91.52;96926.50;5032935;28;20209;-65
2022/04/10 04:10:21;;;;;;;8.57;5.70;;;;;;;2.64;91.28;96919.72;5033274;28;20183;-63
2022/04/10 04:12:46;;;;;;;6.67;5.57;;;;;;;2.81;90.42;96929.75;5033026;28;20693;-65
2022/04/10 04:15:12;;;;;;;5.40;4.97;;;;;;;2.75;90.83;96933.03;5033211;28;20216;-63
2022/04/10 04:17:38;;;;;;;7.17;5.33;;;;;;;2.66;90.62;96931.50;5033351;28;20202;-63
2022/04/10 04:20:05;;;;;;;5.50;5.03;;;;;;;2.80;90.00;96933.31;5032544;28;20578;-64
2022/04/10 04:22:33;;;;;;;8.10;5.93;;;;;;;2.67;90.10;96943.47;5032986;28;20194;-63
2022/04/10 04:24:59;;;;;;;6.23;5.37;;;;;;;2.79;89.42;96944.66;5032964;28;20190;-64
2022/04/10 04:27:24;;;;;;;7.33;5.20;;;;;;;2.85;88.94;96946.56;5033063;28;20187;-64
2022/04/10 04:29:50;;;;;;;7.37;5.40;;;;;;;2.83;88.84;96947.72;5032519;28;20183;-65
2022/04/10 04:32:15;;;;;;;6.23;5.63;;;;;;;2.99;87.96;96955.34;5031400;28;20183;-64
2022/04/10 04:34:40;;;;;;;6.70;5.47;;;;;;;2.95;88.22;96948.91;5032814;28;20179;-65
2022/04/10 04:37:07;;;;;;;6.93;5.70;;;;;;;3.06;87.14;96955.47;5032756;28;20191;-65
2022/04/10 04:39:33;;;;;;;7.77;5.90;;;;;;;3.03;87.13;96951.41;5032789;28;20199;-64
2022/04/10 04:41:58;;;;;;;7.20;6.00;;;;;;;3.07;87.65;96955.25;5032868;28;20194;-64
2022/04/10 04:44:23;;;;;;;8.63;5.70;;;;;;;3.18;86.47;96957.44;5032237;28;20186;-64
2022/04/10 04:46:49;;;;;;;8.33;5.83;;;;;;;3.26;85.87;96961.72;5032464;28;20186;-64
2022/04/10 04:49:14;;;;;;;7.57;6.30;;;;;;;3.40;85.10;96954.97;5032542;28;20189;-65
2022/04/10 04:51:40;;;;;;;5.63;4.90;;;;;;;3.38;85.06;96962.91;5032882;28;20187;-63
2022/04/10 04:54:08;;;;;;;6.30;5.70;;;;;;;3.43;84.08;96964.97;5014701;28;20210;-64
2022/04/10 04:56:34;;;;;;;9.03;6.17;;;;;;;3.44;85.29;96961.41;5032197;28;20182;-65
2022/04/10 04:58:59;;;;;;;6.00;5.40;;;;;;;3.50;83.96;96968.47;5014963;28;20213;-66
2022/04/10 05:01:25;;;;;;;7.30;5.97;;;;;;;3.65;83.43;96967.50;5031987;28;20222;-65
2022/04/10 05:03:50;;;;;;;6.53;5.37;;;;;;;3.65;83.55;96974.47;5031538;28;20190;-64
2022/04/10 05:06:16;;;;;;;6.23;5.40;;;;;;;3.79;83.11;96981.41;5032438;28;20641;-64
2022/04/10 05:08:41;;;;;;;7.67;5.70;;;;;;;3.90;82.22;96975.00;5032333;28;20197;-64
2022/04/10 05:11:10;;;;;;;6.17;5.27;;;;;;;4.02;81.24;96987.31;5032095;28;20236;-65
2022/04/10 05:13:36;;;;;;;4.93;4.43;;;;;;;3.94;81.44;96986.63;5031729;28;20248;-64
2022/04/10 05:16:02;;;;;;;7.17;5.33;;;;;;;3.87;82.23;96993.50;5032531;28;20647;-65
2022/04/10 05:18:27;;;;;;;6.73;5.67;;;;;;;3.85;82.26;96995.47;5032049;28;20699;-65
2022/04/10 05:20:53;;;;;;;5.90;5.23;;;;;;;3.79;81.53;97007.34;5032311;28;20724;-65
2022/04/10 05:23:20;;;;;;;5.80;5.30;;;;;;;3.59;82.65;97007.06;5032388;28;20183;-64
2022/04/10 05:25:47;;;;;;;5.07;4.63;;;;;;;3.84;82.18;97012.03;5014422;28;20186;-65
2022/04/10 05:28:12;;;;;;;6.10;5.50;;;;;;;4.03;81.49;97021.84;5032482;28;20187;-65
2022/04/10 05:30:38;;;;;;;7.73;5.33;;;;;;;4.04;80.57;97015.66;5014374;28;20194;-65
2022/04/10 05:33:04;;;;;;;7.97;5.37;;;;;;;4.11;79.52;97019.16;5031460;28;20269;-65
2022/04/10 05:35:29;;;;;;;5.93;5.33;;;;;;;3.93;80.87;97016.94;5017773;28;20194;-63
2022/04/10 05:37:55;;;;;;;9.90;5.47;;;;;;;3.98;80.52;97018.97;5014650;28;20195;-64
2022/04/10 05:40:22;;;;;;;6.63;4.93;;;;;;;4.21;79.76;97024.88;5032214;28;20186;-65
2022/04/10 05:42:48;;;;;;;5.40;4.90;;;;;;;4.18;79.38;97020.03;5032421;28;20222;-64
2022/04/10 05:45:13;;;;;;;5.50;4.73;;;;;;;4.32;79.18;97029.59;5033257;28;20277;-64
2022/04/10 05:47:41;;;;;;;5.10;4.57;;;;;;;4.36;77.72;97030.03;5035987;28;20286;-64
2022/04/10 05:50:08;;;;;;;4.47;4.07;;;;;;;4.44;78.17;97035.13;5036006;28;20186;-65
2022/04/10 05:52:40;;;;;;;5.93;4.50;;;;;;;4.53;76.52;97041.81;5017876;28;20179;-64
2022/04/10 05:55:07;;;;;;;4.93;4.20;;;;;;;4.43;76.82;97046.50;5035410;28;20187;-64
2022/04/10 05:57:33;;;;;;;6.53;4.80;;;;;;;4.64;76.69;97049.13;5035688;28;20667;-63
2022/04/10 05:59:58;;;;;;;6.17;4.43;;;;;;;4.30;77.52;97047.13;5035189;28;20210;-64
2022/04/10 06:02:24;;;;;;;5.63;4.80;;;;;;;4.18;77.88;97048.56;5035562;28;20230;-64
2022/04/10 06:04:49;;;;;;;5.50;4.50;;;;;;;4.30;77.06;97047.13;5035505;28;20219;-65
2022/04/10 06:07:14;;;;;;;5.43;4.17;;;;;;;4.43;76.48;97051.69;5017784;28;20259;-63
2022/04/10 06:09:40;;;;;;;5.63;4.93;;;;;;;4.62;75.83;97056.31;5035582;28;20190;-65
2022/04/10 06:12:06;;;;;;;4.73;4.13;;;;;;;5.09;73.92;97058.41;5034843;28;20183;-64
2022/04/10 06:14:31;;;;;;;6.13;4.17;;;;;;;5.76;71.50;97050.97;5035379;28;20171;-63
2022/04/10 06:16:57;;;;;;;3.77;3.47;;;;;;;6.01;69.72;97056.59;5035202;28;20546;-63
2022/04/10 06:19:23;;;;;;;4.43;4.00;;;;;;;6.44;67.20;97053.78;5034737;28;20195;-64
2022/04/10 06:21:48;;;;;;;4.13;3.73;;;;;;;6.43;67.08;97057.38;5035137;28;20232;-63
2022/04/10 06:24:13;;;;;;;4.03;3.50;;;;;;;6.18;66.58;97055.28;5034270;28;20195;-63
2022/04/10 06:26:40;;;;;;;4.13;3.50;;;;;;;6.00;66.72;97061.97;5017279;28;20186;-63
2022/04/10 06:29:06;;;;;;;5.53;4.10;;;;;;;6.33;66.94;97060.34;5034662;28;20273;-65
2022/04/10 06:31:31;;;;;;;4.50;3.03;;;;;;;5.66;67.97;97052.28;5035109;28;20273;-63
2022/04/10 06:33:57;;;;;;;6.23;3.60;;;;;;;5.64;68.79;97067.28;5016720;28;20203;-64
2022/04/10 06:36:23;;;;;;;3.70;3.40;;;;;;;5.73;68.63;97074.75;5034919;28;20193;-64
2022/04/10 06:38:49;;;;;;;6.90;3.70;;;;;;;5.74;68.74;97078.19;5034749;28;20272;-63
2022/04/10 06:41:15;;;;;;;4.30;3.33;;;;;;;5.92;67.85;97073.31;5034825;28;20641;-63
2022/04/10 06:43:40;;;;;;;5.03;3.63;;;;;;;6.08;68.41;97074.81;5034924;28;20536;-62
2022/04/10 06:46:06;;;;;;;5.57;3.30;;;;;;;6.20;67.45;97078.50;5034721;28;20266;-64
2022/04/10 06:48:32;;;;;;;4.17;3.70;;;;;;;6.45;66.44;97073.63;5034207;28;20589;-63
2022/04/10 06:50:57;;;;;;;6.90;3.43;;;;;;;6.24;66.31;97082.34;5034327;28;20197;-64
2022/04/10 06:53:22;;;;;;;5.10;3.50;;;;;;;5.97;66.92;97081.34;5034627;28;20217;-62
2022/04/10 06:55:48;;;;;;;4.20;3.80;;;;;;;6.39;66.52;97083.00;5015912;28;20183;-63
2022/04/10 06:58:15;;;;;;;5.73;3.17;;;;;;;6.43;65.72;97089.44;5033889;28;20333;-63
2022/04/10 07:00:41;;;;;;;4.67;3.30;;;;;;;6.44;65.31;97085.84;5033562;28;20182;-63
2022/04/10 07:03:06;;;;;;;3.30;2.97;;;;;;;6.13;65.40;97083.66;5034249;28;20266;-64
2022/04/10 07:05:32;;;;;;;3.47;3.17;;;;;;;6.75;65.79;97093.16;5033748;28;20198;-64
2022/04/10 07:07:57;;;;;;;5.77;3.70;;;;;;;6.85;65.40;97087.63;5034255;28;20808;-64
2022/04/10 07:10:23;;;;;;;5.43;3.30;;;;;;;6.99;64.19;97097.06;5033407;28;20640;-65
2022/04/10 07:12:48;;;;;;;5.03;3.30;;;;;;;6.30;66.11;97088.56;5033751;28;20289;-65
2022/04/10 07:15:14;;;;;;;6.53;3.23;;;;;;;6.67;65.33;97096.78;5033853;28;20190;-66
2022/04/10 07:17:39;;;;;;;4.10;3.23;;;;;;;6.64;65.69;97096.34;5034348;28;20202;-65
2022/04/10 07:20:05;;;;;;;3.80;3.47;;;;;;;6.71;64.92;97093.75;5034041;28;20269;-67
2022/04/10 07:25:15;;;;;;;6.60;3.90;;;;;;;7.07;64.11;97096.91;5033827;28;20236;-64
2022/04/10 07:27:40;;;;;;;5.20;3.10;;;;;;;7.46;62.89;97098.78;5034168;28;20269;-64
2022/04/10 07:30:06;;;;;;;5.43;3.10;;;;;;;7.72;62.08;97098.00;5033910;28;20210;-64
2022/04/10 07:32:32;;;;;;;4.17;3.10;;;;;;;7.61;61.76;97096.78;5033019;28;20221;-64
2022/04/10 07:35:02;;;;;;;3.83;3.33;;;;;;;7.49;61.72;97101.78;5033678;28;20611;-64
2022/04/10 07:37:27;;;;;;;4.07;2.93;;;;;;;8.04;61.12;97109.41;5033903;28;20174;-64
2022/04/10 07:39:54;;;;;;;2.87;2.67;;;;;;;7.57;61.51;97102.59;5033712;28;20266;-65
2022/04/10 07:42:19;;;;;;;3.37;3.00;;;;;;;7.92;61.23;97104.81;5033723;28;20233;-64
2022/04/10 07:44:45;;;;;;;3.97;3.40;;;;;;;8.09;60.46;97107.81;5033385;28;20182;-65
2022/04/10 07:47:25;;;;;;;4.10;3.43;;;;;;;7.66;61.22;97110.03;5033105;28;20190;-65
2022/04/10 07:49:50;;;;;;;4.63;3.57;;;;;;;7.89;60.59;97105.22;5033748;28;20182;-65
2022/04/10 07:52:16;;;;;;;3.73;3.33;;;;;;;8.20;59.63;97106.38;5033188;28;20232;-65
2022/04/10 07:54:41;;;;;;;3.63;2.90;;;;;;;8.34;59.26;97113.22;5015524;28;20594;-65
2022/04/10 07:57:07;;;;;;;4.83;3.27;;;;;;;8.10;58.81;97114.63;5033681;28;20688;-65
2022/04/10 07:59:32;;;;;;;4.27;3.10;;;;;;;8.55;58.03;97120.00;5015576;28;20694;-65
2022/04/10 08:01:57;;;;;;;3.80;3.20;;;;;;;8.05;58.44;97119.66;5015112;28;20292;-66
2022/04/10 08:04:23;;;;;;;3.67;3.37;;;;;;;7.98;59.60;97118.84;5033395;28;20182;-72
2022/04/10 08:06:48;;;;;;;5.83;3.50;;;;;;;8.76;61.90;97124.97;5033439;28;20179;-65
2022/04/10 08:09:13;;;;;;;4.30;3.47;;;;;;;9.25;56.63;97123.56;5014882;28;20175;-66
2022/04/10 08:11:39;;;;;;;3.83;3.30;;;;;;;9.04;56.46;97130.69;5033156;28;20269;-66
2022/04/10 08:14:05;;;;;;;7.77;3.30;;;;;;;9.11;55.34;97128.03;5032736;28;20189;-67
2022/04/10 08:16:31;;;;;;;8.43;4.10;;;;;;;9.15;56.13;97130.03;5032188;28;20183;-68
2022/04/10 08:18:56;;;;;;;5.23;3.50;;;;;;;8.46;56.64;97129.09;5032773;28;20252;-65
2022/04/10 08:21:21;;;;;;;5.20;3.40;;;;;;;9.06;56.26;97131.28;5032664;28;20175;-67
2022/04/10 08:23:47;;;;;;;5.37;3.33;;;;;;;8.88;54.19;97133.75;5032932;28;20645;-65
2022/04/10 08:26:12;;;;;;;4.00;3.70;;;;;;;9.14;54.25;97133.66;5032446;28;20513;-67
2022/04/10 08:28:37;;;;;;;4.47;3.50;;;;;;;8.77;54.16;97135.22;5032930;28;20661;-66
2022/04/10 08:31:03;;;;;;;6.33;3.50;;;;;;;8.52;55.76;97138.72;5032262;28;20194;-67
2022/04/10 08:33:28;;;;;;;3.73;3.30;;;;;;;9.02;54.70;97143.19;5014547;28;20194;-67
2022/04/10 08:35:54;;;;;;;4.23;3.50;;;;;;;8.23;59.13;97145.16;5015092;28;20182;-67
2022/04/10 08:38:20;;;;;;;3.90;3.60;;;;;;;7.92;58.61;97143.16;5032991;28;20233;-66
2022/04/10 08:40:46;;;;;;;4.03;3.50;;;;;;;8.38;56.17;97150.19;5032939;28;20241;-66
2022/04/10 08:43:12;;;;;;;4.27;3.53;;;;;;;8.05;56.83;97144.97;5032726;28;20193;-66
2022/04/10 08:45:39;;;;;;;4.17;3.50;;;;;;;8.44;56.95;97147.56;5032440;28;20590;-67
2022/04/10 08:48:05;;;;;;;6.70;3.30;;;;;;;9.09;57.04;97150.97;5032344;28;20329;-66
2022/04/10 08:50:31;;;;;;;4.20;3.30;;;;;;;9.17;55.39;97150.75;5032724;28;20217;-66
2022/04/10 08:52:58;;;;;;;3.73;3.30;;;;;;;9.25;55.45;97147.88;5032697;28;20197;-67
2022/04/10 08:55:25;;;;;;;5.57;3.50;;;;;;;9.63;53.83;97147.88;5032631;28;20645;-68
2022/04/10 08:57:50;;;;;;;5.23;3.57;;;;;;;9.87;52.70;97152.31;5031986;28;20203;-66
2022/04/10 09:00:18;;;;;;;3.93;3.50;;;;;;;10.14;50.96;97160.00;5031825;28;20197;-67
2022/04/10 09:02:52;;;;;;;3.37;2.77;;;;;;;8.96;52.18;97158.88;5032475;28;20241;-67
2022/04/10 09:05:22;;;;;;;6.23;2.97;;;;;;;9.32;50.87;97155.69;5032283;28;20182;-67
2022/04/10 09:08:08;;;;;;;5.67;2.80;;;;;;;9.21;50.30;97154.53;5032201;28;20194;-66
2022/04/10 09:11:01;;;;;;;3.53;2.90;;;;;;;8.37;52.81;97153.78;5031836;28;20183;-67
2022/04/10 09:13:47;;;;;;;3.30;2.77;;;;;;;8.49;53.39;97145.13;5032334;28;20182;-67
2022/04/10 09:16:24;;;;;;;5.90;2.90;;;;;;;8.49;53.67;97149.56;5032385;28;20596;-66
2022/04/10 09:18:54;;;;;;;4.03;3.00;;;;;;;9.02;52.83;97153.63;5029511;28;20206;-66
2022/04/10 09:21:32;;;;;;;5.17;2.53;;;;;;;9.33;51.63;97149.47;5035648;28;20175;-66
2022/04/10 09:23:58;;;;;;;6.13;3.20;;;;;;;8.88;50.52;97149.44;5036217;28;20174;-66
2022/04/10 09:26:24;;;;;;;4.07;2.47;;;;;;;9.24;49.98;97161.19;5036019;28;20205;-67
2022/04/10 09:28:51;;;;;;;2.90;2.60;;;;;;;9.22;48.90;97163.19;5036569;28;20648;-66
2022/04/10 09:31:32;;;;;;;2.60;2.40;;;;;;;9.56;47.13;97162.81;5035821;28;20306;-67
2022/04/10 09:33:59;;;;;;;5.77;2.77;;;;;;;9.19;48.14;97154.75;5035135;28;20784;-66
2022/04/10 09:36:28;;;;;;;4.50;2.60;;;;;;;9.02;49.44;97153.63;5036122;28;20291;-67
2022/04/10 09:38:54;;;;;;;3.07;2.77;;;;;;;8.65;52.16;97156.94;5018260;28;20583;-66
2022/04/10 09:41:20;;;;;;;3.10;2.50;;;;;;;8.28;52.81;97156.59;5036460;28;20187;-64
2022/04/10 09:43:45;;;;;;;3.57;2.90;;;;;;;8.26;54.67;97158.59;5035752;28;20190;-65
2022/04/10 09:46:13;;;;;;;7.73;3.17;;;;;;;8.44;53.98;97154.59;5035709;28;20245;-66
2022/04/10 09:48:39;;;;;;;4.67;2.87;;;;;;;8.45;54.07;97164.03;5035660;28;20574;-64
2022/04/10 09:51:05;;;;;;;3.47;2.80;;;;;;;8.32;54.98;97159.63;5036140;28;20194;-67
2022/04/10 09:53:32;;;;;;;4.57;2.80;;;;;;;8.46;53.73;97161.22;5035335;28;20197;-65
2022/04/10 09:55:58;;;;;;;4.50;3.00;;;;;;;8.68;53.74;97159.19;5035564;28;20645;-66
2022/04/10 09:58:25;;;;;;;3.63;2.77;;;;;;;8.72;53.55;97155.13;5020299;28;20194;-66
2022/04/10 10:00:54;;;;;;;5.07;3.10;;;;;;;9.04;52.44;97162.06;5035757;28;21856;-66
2022/04/10 10:03:24;;;;;;;4.03;3.03;;;;;;;8.98;51.42;97155.03;5035747;28;20691;-65
2022/04/10 10:05:51;;;;;;;4.00;2.70;;;;;;;9.48;51.86;97150.78;5035460;28;20225;-67
2022/04/10 10:08:17;;;;;;;3.47;2.73;;;;;;;9.40;49.42;97155.47;5002098;28;20211;-65
2022/04/10 10:10:44;;;;;;;5.97;2.70;;;;;;;9.44;48.68;97146.19;5035129;28;20214;-65
2022/04/10 10:13:12;;;;;;;2.40;2.20;;;;;;;9.76;47.23;97142.53;5035149;28;20186;-69
2022/04/10 10:15:38;;;;;;;3.00;2.70;;;;;;;9.73;47.29;97147.41;5034916;28;20193;-66
2022/04/10 10:18:08;;;;;;;2.83;2.37;;;;;;;9.47;47.01;97146.53;5014277;28;20540;-67
2022/04/10 10:20:36;;;;;;;3.90;2.40;;;;;;;9.87;45.97;97147.09;5030020;28;20175;-65
2022/04/10 10:23:06;;;;;;;2.80;2.30;;;;;;;9.98;45.06;97149.03;5034610;28;20237;-65
2022/04/10 10:26:09;;;;;;;3.93;2.20;;;;;;;9.32;45.32;97140.81;5034005;28;20190;-64
2022/04/10 10:28:58;;;;;;;2.40;2.17;;;;;;;9.44;46.11;97146.97;5030611;28;20182;-64
2022/04/10 10:31:37;;;;;;;2.90;2.30;;;;;;;9.87;44.65;97147.09;5033088;28;20175;-65
2022/04/10 10:34:06;;;;;;;4.23;2.70;;;;;;;10.16;44.07;97143.06;5034258;28;20186;-64
2022/04/10 10:36:32;;;;;;;3.70;2.63;;;;;;;9.37;45.55;97148.03;5034785;28;20191;-64
2022/04/10 10:38:58;;;;;;;2.17;2.00;;;;;;;9.87;44.67;97136.63;5034740;28;20217;-65
2022/04/10 10:41:23;;;;;;;6.67;2.57;;;;;;;9.81;45.43;97139.28;5034820;28;20191;-65
2022/04/10 10:43:49;;;;;;;4.90;2.70;;;;;;;9.55;47.19;97146.31;5034046;28;20179;-65
2022/04/10 10:46:20;;;;;;;2.77;2.30;;;;;;;8.78;51.15;97154.31;5034080;28;20261;-64
2022/04/10 10:48:46;;;;;;;5.60;2.87;;;;;;;8.09;54.44;97162.63;5034771;28;20179;-63
2022/04/10 10:51:12;;;;;;;3.07;2.77;;;;;;;8.09;56.26;97153.97;5034832;28;20573;-63
2022/04/10 10:53:58;;;;;;;3.33;2.63;;;;;;;7.53;57.59;97151.75;5033559;28;20289;-62
2022/04/10 10:56:32;;;;;;;6.17;3.47;;;;;;;7.82;59.59;97163.63;5030113;28;20272;-63
2022/04/10 10:59:23;;;;;;;5.17;3.53;;;;;;;7.58;60.58;97177.25;5029555;28;20198;-66
2022/04/10 11:02:02;;;;;;;4.47;3.03;;;;;;;7.94;59.61;97177.69;5024538;28;20222;-62
2022/04/10 11:04:33;;;;;;;5.40;3.20;;;;;;;8.05;59.90;97174.47;5032647;28;20206;-64
2022/04/10 11:07:19;;;;;;;5.37;3.80;;;;;;;8.34;58.46;97171.50;5032574;28;20532;-64
2022/04/10 11:10:07;;;;;;;3.73;3.17;;;;;;;8.45;57.74;97175.28;5019542;28;20199;-63
2022/04/10 11:12:54;;;;;;;4.10;3.57;;;;;;;8.39;60.98;97167.47;5032958;28;20609;-65
2022/04/10 11:15:22;;;;;;;11.23;4.03;;;;;;;8.55;61.43;97165.22;5019940;28;20266;-63
2022/04/10 11:17:49;;;;;;;6.93;3.87;;;;;;;8.02;60.78;97161.84;5033581;28;20221;-63
2022/04/10 11:20:23;;;;;;;6.07;3.97;;;;;;;7.76;62.45;97154.78;5015653;28;20186;-63
2022/04/10 11:22:53;;;;;;;5.87;3.77;;;;;;;7.88;60.77;97161.03;5033159;28;20179;-63
2022/04/10 11:25:38;;;;;;;9.03;4.30;;;;;;;7.89;62.99;97161.81;5033759;28;20179;-64
2022/04/10 11:28:07;;;;;;;3.87;3.27;;;;;;;8.26;60.76;97163.00;5033552;28;20236;-64
2022/04/10 11:30:41;;;;;;;5.00;3.27;;;;;;;9.04;58.43;97164.66;5029837;28;20179;-64
2022/04/10 11:33:08;;;;;;;5.00;2.83;;;;;;;9.14;54.42;97154.56;5022697;28;20198;-64
2022/04/10 11:35:39;;;;;;;3.60;3.10;;;;;;;9.07;54.00;97156.44;5033566;28;20260;-64
2022/04/10 11:38:13;;;;;;;3.60;2.80;;;;;;;9.69;54.40;97151.47;5016459;28;20326;-65
2022/04/10 11:40:41;;;;;;;5.87;3.17;;;;;;;10.04;53.06;97152.59;5032912;28;20265;-65
2022/04/10 11:43:11;;;;;;;4.10;2.47;;;;;;;9.92;51.58;97154.31;5014658;28;20191;-64
2022/04/10 11:45:37;;;;;;;2.67;2.10;;;;;;;9.86;48.92;97145.47;5032949;28;20175;-63